createdAt,value
2024-05-09T00:00:44.966Z,12.30
2024-05-09T00:03:12.655Z,12.32
2024-05-09T00:05:41.662Z,13.30
2024-05-09T00:08:10.496Z,12.65
2024-05-09T00:10:39.460Z,12.35
2024-05-09T00:13:08.717Z,13.20
2024-05-09T00:15:52.618Z,13.38
2024-05-09T00:18:19.786Z,12.15
2024-05-09T00:20:47.207Z,13.38
2024-05-09T00:23:14.486Z,11.02
2024-05-09T00:25:45.131Z,13.45
2024-05-09T00:28:13.518Z,12.50
2024-05-09T00:30:41.161Z,12.48
2024-05-09T00:33:10.251Z,13.65
2024-05-09T00:35:39.005Z,13.43
2024-05-09T00:38:08.379Z,13.70
2024-05-09T00:40:42.652Z,14.38
2024-05-09T00:43:12.282Z,12.95
2024-05-09T00:45:40.385Z,14.00
2024-05-09T00:48:09.677Z,14.10
2024-05-09T00:50:42.186Z,14.00
2024-05-09T00:53:15.743Z,13.60
2024-05-09T00:55:44.230Z,13.70
2024-05-09T00:58:15.226Z,14.13
2024-05-09T01:00:43.388Z,15.93
2024-05-09T01:03:22.411Z,14.50
2024-05-09T01:05:51.205Z,15.90
2024-05-09T01:08:18.661Z,14.90
2024-05-09T01:10:47.928Z,14.90
2024-05-09T01:13:15.651Z,14.75
2024-05-09T01:15:43.518Z,15.07
2024-05-09T01:18:12.350Z,14.65
2024-05-09T01:20:43.700Z,14.80
2024-05-09T01:23:14.891Z,14.65
2024-05-09T01:25:44.329Z,15.00
2024-05-09T01:28:11.897Z,13.93
2024-05-09T01:30:39.239Z,13.70
2024-05-09T01:33:09.211Z,14.20
2024-05-09T01:35:39.215Z,13.82
2024-05-09T01:38:07.570Z,15.02
2024-05-09T01:40:38.644Z,13.02
2024-05-09T01:43:09.343Z,14.45
2024-05-09T01:45:38.224Z,14.85
2024-05-09T01:48:05.787Z,13.20
2024-05-09T01:50:38.257Z,14.13
2024-05-09T01:53:12.605Z,14.02
2024-05-09T01:55:40.215Z,13.55
2024-05-09T01:58:07.650Z,13.77
2024-05-09T02:00:40.131Z,13.50
2024-05-09T02:03:16.488Z,12.52
2024-05-09T02:05:47.058Z,13.75
2024-05-09T02:08:22.213Z,14.48
2024-05-09T02:10:50.614Z,12.90
2024-05-09T02:13:18.307Z,14.43
2024-05-09T02:15:59.224Z,13.60
2024-05-09T02:18:26.411Z,13.63
2024-05-09T02:20:53.670Z,13.77
2024-05-09T02:23:20.791Z,13.75
2024-05-09T02:25:48.144Z,13.55
2024-05-09T02:28:17.804Z,13.45
2024-05-09T02:30:45.111Z,13.30
2024-05-09T02:33:14.097Z,13.85
2024-05-09T02:35:43.695Z,13.93
2024-05-09T02:38:11.829Z,12.15
2024-05-09T02:40:40.121Z,13.73
2024-05-09T02:43:10.017Z,13.20
2024-05-09T02:45:38.884Z,13.60
2024-05-09T02:48:07.196Z,13.65
2024-05-09T02:50:38.866Z,13.40
2024-05-09T02:53:10.487Z,13.30
2024-05-09T02:55:38.370Z,13.40
2024-05-09T02:58:07.283Z,15.25
2024-05-09T03:00:39.252Z,14.90
2024-05-09T03:05:59.602Z,14.00
2024-05-09T03:08:28.139Z,13.35
2024-05-09T03:10:55.292Z,15.90
2024-05-09T03:13:22.453Z,14.75
2024-05-09T03:15:49.507Z,13.80
2024-05-09T03:18:17.716Z,13.73
2024-05-09T03:20:45.030Z,14.75
2024-05-09T03:23:12.375Z,13.77
2024-05-09T03:25:39.630Z,14.30
2024-05-09T03:28:07.466Z,14.68
2024-05-09T03:30:40.321Z,14.10
2024-05-09T03:33:19.112Z,12.23
2024-05-09T03:35:48.807Z,12.00
2024-05-09T03:38:17.210Z,11.73
2024-05-09T03:40:50.223Z,11.05
2024-05-09T03:43:18.787Z,10.48
2024-05-09T03:45:48.175Z,9.75
2024-05-09T03:48:15.522Z,10.27
2024-05-09T03:50:46.012Z,10.45
2024-05-09T03:53:14.370Z,11.32
2024-05-09T03:55:41.792Z,11.13
2024-05-09T03:58:28.825Z,10.57
2024-05-09T04:00:56.074Z,10.02
2024-05-09T04:03:23.533Z,11.18
2024-05-09T04:05:51.484Z,9.43
2024-05-09T04:08:18.683Z,9.82
2024-05-09T04:10:46.755Z,10.45
2024-05-09T04:13:13.987Z,9.35
2024-05-09T04:15:41.268Z,8.38
2024-05-09T04:18:08.644Z,8.68
2024-05-09T04:20:39.329Z,9.07
2024-05-09T04:23:12.838Z,9.07
2024-05-09T04:25:45.337Z,9.60
2024-05-09T04:28:13.372Z,10.38
2024-05-09T04:30:41.722Z,8.75
2024-05-09T04:33:12.006Z,9.80
2024-05-09T04:35:44.381Z,9.57
2024-05-09T04:38:15.593Z,10.15
2024-05-09T04:40:43.322Z,9.27
2024-05-09T04:43:19.552Z,9.85
2024-05-09T04:45:46.978Z,9.85
2024-05-09T04:48:14.355Z,10.18
2024-05-09T04:50:41.892Z,10.25
2024-05-09T04:53:10.828Z,11.43
2024-05-09T04:55:39.913Z,11.73
2024-05-09T04:58:09.280Z,11.40
2024-05-09T05:00:38.973Z,11.82
2024-05-09T05:03:14.563Z,12.32
2024-05-09T05:05:44.867Z,11.50
2024-05-09T05:08:13.980Z,12.45
2024-05-09T05:10:44.488Z,11.45
2024-05-09T05:13:24.997Z,11.13
2024-05-09T05:15:56.922Z,11.13
2024-05-09T05:18:26.116Z,9.57
2024-05-09T05:20:54.578Z,11.05
2024-05-09T05:23:23.272Z,12.10
2024-05-09T05:25:55.291Z,12.35
2024-05-09T05:28:23.204Z,11.50
2024-05-09T05:30:50.670Z,11.43
2024-05-09T05:33:20.285Z,10.65
2024-05-09T05:35:48.164Z,10.88
2024-05-09T05:38:15.614Z,11.15
2024-05-09T05:40:42.831Z,10.13
2024-05-09T05:43:17.006Z,10.82
2024-05-09T05:45:44.604Z,10.68
2024-05-09T05:48:14.076Z,11.50
2024-05-09T05:50:41.443Z,10.32
2024-05-09T05:53:10.096Z,10.95
2024-05-09T05:55:38.838Z,10.57
2024-05-09T05:58:08.769Z,10.25
2024-05-09T06:00:39.031Z,10.95
2024-05-09T06:03:09.444Z,10.13
2024-05-09T06:05:40.001Z,9.82
2024-05-09T06:08:08.151Z,10.63
2024-05-09T06:10:39.190Z,10.75
2024-05-09T06:13:11.604Z,10.23
2024-05-09T06:15:40.640Z,11.65
2024-05-09T06:18:10.199Z,11.75
2024-05-09T06:20:40.147Z,11.32
2024-05-09T06:23:09.031Z,11.93
2024-05-09T06:25:37.036Z,10.75
2024-05-09T06:28:04.827Z,12.18
2024-05-09T06:30:42.208Z,11.43
2024-05-09T06:33:12.830Z,12.77
2024-05-09T06:35:42.120Z,13.95
2024-05-09T06:38:09.902Z,12.32
2024-05-09T06:40:41.316Z,12.93
2024-05-09T06:43:18.369Z,13.18
2024-05-09T06:45:54.605Z,12.60
2024-05-09T06:48:22.662Z,13.05
2024-05-09T06:50:50.570Z,13.20
2024-05-09T06:53:24.231Z,11.90
2024-05-09T06:55:51.624Z,11.98
2024-05-09T06:58:18.839Z,12.57
2024-05-09T07:00:46.032Z,12.27
2024-05-09T07:03:16.840Z,11.63
2024-05-09T07:05:47.804Z,11.63
2024-05-09T07:08:16.377Z,9.77
2024-05-09T07:10:44.499Z,9.77
2024-05-09T07:13:13.287Z,9.63
2024-05-09T07:15:41.945Z,9.27
2024-05-09T07:18:17.915Z,9.18
2024-05-09T07:20:47.020Z,8.80
2024-05-09T07:23:15.370Z,10.48
2024-05-09T07:25:42.853Z,9.45
2024-05-09T07:28:17.769Z,9.13
2024-05-09T07:30:45.235Z,9.48
2024-05-09T07:33:23.371Z,9.00
2024-05-09T07:35:52.213Z,8.35
2024-05-09T07:38:19.555Z,7.97
2024-05-09T07:40:46.918Z,8.45
2024-05-09T07:43:15.086Z,7.25
2024-05-09T07:45:50.790Z,7.72
2024-05-09T07:52:38.900Z,7.23
2024-05-09T07:53:47.129Z,6.55
2024-05-09T07:56:18.943Z,7.65
2024-05-09T07:58:49.739Z,7.22
2024-05-09T08:01:16.999Z,7.47
2024-05-09T08:03:44.691Z,7.50
2024-05-09T08:06:11.942Z,6.47
2024-05-09T08:08:39.178Z,7.63
2024-05-09T08:11:06.699Z,7.03
2024-05-09T08:13:34.042Z,8.05
2024-05-09T08:16:02.021Z,8.20
2024-05-09T08:18:29.481Z,8.45
2024-05-09T08:20:58.311Z,8.30
2024-05-09T08:23:25.375Z,7.07
2024-05-09T08:25:55.591Z,6.50
2024-05-09T08:28:22.782Z,6.13
2024-05-09T08:30:50.179Z,5.80
2024-05-09T08:33:20.390Z,6.60
2024-05-09T08:35:47.727Z,6.18
2024-05-09T08:38:14.937Z,4.82
2024-05-09T08:40:42.477Z,6.25
2024-05-09T08:43:12.113Z,4.45
2024-05-09T08:45:44.278Z,4.68
2024-05-09T08:48:15.054Z,4.75
2024-05-09T08:50:44.785Z,5.35
2024-05-09T08:53:12.764Z,4.43
2024-05-09T08:55:43.240Z,5.32
2024-05-09T08:58:16.231Z,6.15
2024-05-09T09:00:45.294Z,5.38
2024-05-09T09:03:19.217Z,4.30
2024-05-09T09:06:06.926Z,6.88
2024-05-09T09:08:34.087Z,5.85
2024-05-09T09:11:01.260Z,5.28
2024-05-09T09:13:28.658Z,5.05
2024-05-09T09:15:59.008Z,4.85
2024-05-09T09:18:28.271Z,4.93
2024-05-09T09:20:56.307Z,5.05
2024-05-09T09:23:23.421Z,4.93
2024-05-09T09:25:50.856Z,3.63
2024-05-09T09:28:18.179Z,4.25
2024-05-09T09:30:48.315Z,3.45
2024-05-09T09:33:17.849Z,7.70
2024-05-09T09:35:44.996Z,4.45
2024-05-09T09:38:16.140Z,4.20
2024-05-09T09:40:49.701Z,5.50
2024-05-09T09:43:24.611Z,5.85
2024-05-09T09:45:55.359Z,4.47
2024-05-09T09:48:23.446Z,4.53
2024-05-09T09:50:55.498Z,3.72
2024-05-09T09:53:23.840Z,4.10
2024-05-09T09:55:52.997Z,3.70
2024-05-09T09:58:21.200Z,3.65
2024-05-09T10:00:48.744Z,4.07
2024-05-09T10:03:16.186Z,4.78
2024-05-09T10:05:46.374Z,5.50
2024-05-09T10:08:16.497Z,3.72
2024-05-09T10:10:47.561Z,4.03
2024-05-09T10:13:17.505Z,5.05
2024-05-09T10:15:50.816Z,4.03
2024-05-09T10:18:22.828Z,3.90
2024-05-09T10:20:54.590Z,3.38
2024-05-09T10:23:25.320Z,3.58
2024-05-09T10:26:02.960Z,2.88
2024-05-09T10:28:31.512Z,4.82
2024-05-09T10:31:07.408Z,3.92
2024-05-09T10:33:37.878Z,3.63
2024-05-09T10:36:14.728Z,3.95
2024-05-09T10:38:43.628Z,4.55
2024-05-09T10:41:11.582Z,3.60
2024-05-09T10:43:40.978Z,3.80
2024-05-09T10:46:09.010Z,3.00
2024-05-09T10:48:37.315Z,3.95
2024-05-09T10:51:05.465Z,3.63
2024-05-09T10:53:39.842Z,3.40
2024-05-09T10:56:07.190Z,4.35
2024-05-09T10:58:34.374Z,4.05
2024-05-09T11:01:06.445Z,5.13
2024-05-09T11:03:34.992Z,3.65
2024-05-09T11:06:02.734Z,4.57
2024-05-09T11:08:31.937Z,4.43
2024-05-09T11:11:04.755Z,3.60
2024-05-09T11:13:33.764Z,3.10
2024-05-09T11:16:01.632Z,3.65
2024-05-09T11:18:33.513Z,2.97
2024-05-09T11:21:13.463Z,2.55
2024-05-09T11:23:41.636Z,3.38
2024-05-09T11:26:10.884Z,3.47
2024-05-09T11:28:38.136Z,3.08
2024-05-09T11:31:07.580Z,3.78
2024-05-09T11:33:45.688Z,3.47
2024-05-09T11:36:13.514Z,3.25
2024-05-09T11:38:41.216Z,2.50
2024-05-09T11:41:08.422Z,4.15
2024-05-09T11:43:35.586Z,3.85
2024-05-09T11:46:03.838Z,3.28
2024-05-09T11:48:31.795Z,3.72
2024-05-09T11:50:59.245Z,3.65
2024-05-09T11:53:26.390Z,3.08
2024-05-09T11:55:53.843Z,2.83
2024-05-09T11:58:22.920Z,3.03
2024-05-09T12:00:50.497Z,1.67
2024-05-09T12:03:17.799Z,2.75
2024-05-09T12:05:45.201Z,2.70
2024-05-09T12:08:12.873Z,2.30
2024-05-09T12:10:40.177Z,3.38
2024-05-09T12:13:07.787Z,2.45
2024-05-09T12:15:38.978Z,3.72
2024-05-09T12:18:07.825Z,2.05
2024-05-09T12:20:38.721Z,2.10
2024-05-09T12:23:10.190Z,2.20
2024-05-09T12:25:39.283Z,1.98
2024-05-09T12:28:07.782Z,2.60
2024-05-09T12:30:39.743Z,2.60
2024-05-09T12:33:09.724Z,2.03
2024-05-09T12:35:37.261Z,2.38
2024-05-09T12:38:04.820Z,2.53
2024-05-09T12:40:36.767Z,3.00
2024-05-09T12:45:38.206Z,2.60
2024-05-09T12:48:07.525Z,2.65
2024-05-09T12:50:35.397Z,3.00
2024-05-09T12:53:03.950Z,3.13
2024-05-09T12:55:40.490Z,2.95
2024-05-09T12:58:17.312Z,3.35
2024-05-09T13:00:45.500Z,3.65
2024-05-09T13:03:13.217Z,3.65
2024-05-09T13:05:46.846Z,4.80
2024-05-09T13:08:14.245Z,3.80
2024-05-09T13:10:42.036Z,3.30
2024-05-09T13:13:12.611Z,3.60
2024-05-09T13:15:42.051Z,4.72
2024-05-09T13:18:09.909Z,3.25
2024-05-09T13:20:37.425Z,3.88
2024-05-09T13:23:09.671Z,3.03
2024-05-09T13:25:38.212Z,3.72
2024-05-09T13:28:06.803Z,3.85
2024-05-09T13:30:39.579Z,4.47
2024-05-09T13:33:13.933Z,4.22
2024-05-09T13:35:47.196Z,4.47
2024-05-09T13:38:19.532Z,3.03
2024-05-09T13:40:47.603Z,4.10
2024-05-09T13:43:15.442Z,4.60
2024-05-09T13:45:42.801Z,3.00
2024-05-09T13:48:10.645Z,2.92
2024-05-09T13:50:39.071Z,3.20
2024-05-09T13:53:07.573Z,3.05
2024-05-09T13:55:38.720Z,2.78
2024-05-09T13:58:06.968Z,3.15
2024-05-09T14:00:44.198Z,2.60
2024-05-09T14:03:16.622Z,2.72
2024-05-09T14:05:45.468Z,2.38
2024-05-09T14:08:13.707Z,2.40
2024-05-09T14:10:48.340Z,2.83
2024-05-09T14:13:16.003Z,2.40
2024-05-09T14:15:43.499Z,2.78
2024-05-09T14:18:13.482Z,3.75
2024-05-09T14:20:44.420Z,2.78
2024-05-09T14:23:11.663Z,2.50
2024-05-09T14:25:42.803Z,3.03
2024-05-09T14:28:12.149Z,3.45
2024-05-09T14:30:40.110Z,2.10
2024-05-09T14:33:08.940Z,2.65
2024-05-09T14:35:38.364Z,2.33
2024-05-09T14:38:08.025Z,2.40
2024-05-09T14:40:41.937Z,2.47
2024-05-09T14:43:15.431Z,2.00
2024-05-09T14:45:43.967Z,2.40
2024-05-09T14:48:14.185Z,2.78
2024-05-09T14:50:48.155Z,2.25
2024-05-09T14:53:15.336Z,2.78
2024-05-09T14:55:43.613Z,1.98
2024-05-09T14:58:12.481Z,2.20
2024-05-09T15:00:46.946Z,3.42
2024-05-09T15:03:21.410Z,3.50
2024-05-09T15:05:50.351Z,3.42
2024-05-09T15:08:19.116Z,3.13
2024-05-09T15:10:46.842Z,2.97
2024-05-09T15:13:16.563Z,2.22
2024-05-09T15:15:44.730Z,3.47
2024-05-09T15:18:12.916Z,2.65
2024-05-09T15:20:40.810Z,2.53
2024-05-09T15:23:08.209Z,2.67
2024-05-09T15:25:36.385Z,3.38
2024-05-09T15:28:07.626Z,2.45
2024-05-09T15:30:35.560Z,2.40
2024-05-09T15:33:06.964Z,2.38
2024-05-09T15:35:35.940Z,2.63
2024-05-09T15:38:04.220Z,2.70
2024-05-09T15:40:38.721Z,2.78
2024-05-09T15:43:09.959Z,2.30
2024-05-09T15:45:39.212Z,1.60
2024-05-09T15:48:08.300Z,2.30
2024-05-09T15:50:39.573Z,2.15
2024-05-09T15:53:10.486Z,2.45
2024-05-09T15:55:38.716Z,2.45
2024-05-09T15:58:07.087Z,1.98
2024-05-09T16:00:39.472Z,2.42
2024-05-09T16:03:10.511Z,3.00
2024-05-09T16:05:38.540Z,2.63
2024-05-09T16:08:07.318Z,2.75
2024-05-09T16:10:35.428Z,2.30
2024-05-09T16:13:03.780Z,2.47
2024-05-09T16:15:31.885Z,3.45
2024-05-09T16:18:00.084Z,2.83
2024-05-09T16:20:35.143Z,2.78
2024-05-09T16:23:08.048Z,3.45
2024-05-09T16:25:35.830Z,2.47
2024-05-09T16:28:07.039Z,2.90
2024-05-09T16:30:40.228Z,3.05
2024-05-09T16:33:08.503Z,3.03
2024-05-09T16:35:37.220Z,3.30
2024-05-09T16:38:05.170Z,3.95
2024-05-09T16:40:38.766Z,3.55
2024-05-09T16:43:09.799Z,2.92
2024-05-09T16:45:37.894Z,3.22
2024-05-09T16:48:06.761Z,3.47
2024-05-09T16:50:35.683Z,3.58
2024-05-09T16:53:04.896Z,2.90
2024-05-09T16:55:32.991Z,3.03
2024-05-09T16:58:00.964Z,3.22
2024-05-09T17:00:38.508Z,2.80
2024-05-09T17:03:11.548Z,2.47
2024-05-09T17:05:42.757Z,2.40
2024-05-09T17:08:10.325Z,2.33
2024-05-09T17:10:37.608Z,1.92
2024-05-09T17:13:06.826Z,2.40
2024-05-09T17:15:36.436Z,2.47
2024-05-09T17:18:05.333Z,2.50
2024-05-09T17:20:35.997Z,2.00
2024-05-09T17:23:12.624Z,1.85
2024-05-09T17:25:40.815Z,2.22
2024-05-09T17:28:09.437Z,2.28
2024-05-09T17:30:39.899Z,1.95
2024-05-09T17:33:10.018Z,2.20
2024-05-09T17:35:38.496Z,1.80
2024-05-09T17:38:06.705Z,2.10
2024-05-09T17:40:36.733Z,2.20
2024-05-09T17:43:10.479Z,1.80
2024-05-09T18:04:02.619Z,2.55
2024-05-09T18:06:29.910Z,1.90
2024-05-09T18:08:56.999Z,2.10
2024-05-09T18:11:25.741Z,1.95
2024-05-09T18:13:54.297Z,1.85
2024-05-09T18:16:21.573Z,2.78
2024-05-09T18:18:48.905Z,3.05
2024-05-09T18:21:16.195Z,2.90
2024-05-09T18:23:43.356Z,3.38
2024-05-09T18:26:10.879Z,4.53
2024-05-09T18:28:38.084Z,4.03
2024-05-09T18:31:06.267Z,5.72
2024-05-09T18:33:33.716Z,8.82
2024-05-09T18:36:01.475Z,9.15
2024-05-09T18:38:28.602Z,8.20
2024-05-09T18:40:55.851Z,8.23
2024-05-09T18:43:28.850Z,6.60
2024-05-09T18:46:03.906Z,7.88
2024-05-09T18:48:31.151Z,6.70
2024-05-09T18:50:58.533Z,7.82
2024-05-09T18:53:25.683Z,7.40
2024-05-09T18:55:52.986Z,8.70
2024-05-09T18:58:20.616Z,7.15
2024-05-09T19:00:50.365Z,6.45
2024-05-09T19:03:18.677Z,7.35
2024-05-09T19:05:46.596Z,9.10
2024-05-09T19:08:15.319Z,8.77
2024-05-09T19:10:45.984Z,7.70
2024-05-09T19:13:14.466Z,9.30
2024-05-09T19:15:43.396Z,8.73
2024-05-09T19:18:12.774Z,8.50
2024-05-09T19:20:40.691Z,7.32
2024-05-09T19:23:07.994Z,7.88
2024-05-09T19:25:36.199Z,8.60
2024-05-09T19:28:05.041Z,9.10
2024-05-09T19:30:39.279Z,7.85
2024-05-09T19:33:13.022Z,8.60
2024-05-09T19:35:41.652Z,9.55
2024-05-09T19:38:08.930Z,10.15
2024-05-09T19:40:36.735Z,10.20
2024-05-09T19:43:05.812Z,9.23
2024-05-09T19:45:35.172Z,9.35
2024-05-09T19:48:03.753Z,8.52
2024-05-09T19:50:37.880Z,8.23
2024-05-09T19:53:10.820Z,7.68
2024-05-09T19:55:38.597Z,8.38
2024-05-09T19:58:07.150Z,7.47
2024-05-09T20:00:37.652Z,9.38
2024-05-09T20:03:08.418Z,8.40
2024-05-09T20:05:36.961Z,8.82
2024-05-09T20:08:05.207Z,8.80
2024-05-09T20:10:34.673Z,8.32
2024-05-09T20:13:04.485Z,8.13
2024-05-09T20:15:35.459Z,10.32
2024-05-09T20:18:03.235Z,10.02
2024-05-09T20:20:37.451Z,11.63
2024-05-09T20:23:09.686Z,12.18
2024-05-09T20:25:37.116Z,11.32
2024-05-09T20:28:06.163Z,10.05
2024-05-09T20:30:35.053Z,10.00
2024-05-09T20:33:05.279Z,10.05
2024-05-09T20:35:35.130Z,9.60
2024-05-09T20:38:03.314Z,10.35
2024-05-09T20:40:35.261Z,11.18
2024-05-09T20:43:06.264Z,10.82
2024-05-09T20:45:34.113Z,11.00
2024-05-09T20:48:01.827Z,9.80
2024-05-09T20:50:37.008Z,10.10
2024-05-09T20:53:10.792Z,10.25
2024-05-09T20:55:38.219Z,10.02
2024-05-09T20:58:05.700Z,10.65
2024-05-09T21:00:40.228Z,11.70
2024-05-09T21:03:11.609Z,11.50
2024-05-09T21:05:39.616Z,10.48
2024-05-09T21:08:07.575Z,12.48
2024-05-09T21:10:36.115Z,12.38
2024-05-09T21:13:04.276Z,11.73
2024-05-09T21:15:32.158Z,10.55
2024-05-09T21:17:59.646Z,11.23
2024-05-09T21:22:57.965Z,10.25
2024-05-09T21:25:25.152Z,10.45
2024-05-09T21:27:52.563Z,9.30
2024-05-09T21:30:31.390Z,9.80
2024-05-09T21:33:06.383Z,9.55
2024-05-09T21:35:34.426Z,9.80
2024-05-09T21:38:01.589Z,9.80
2024-05-09T21:40:34.255Z,10.15
2024-05-09T21:45:30.746Z,8.90
2024-05-09T21:47:58.092Z,9.05
2024-05-09T21:50:35.794Z,9.40
2024-05-09T21:53:07.276Z,9.65
2024-05-09T21:55:34.834Z,8.57
2024-05-09T21:58:02.737Z,10.18
2024-05-09T22:00:36.124Z,10.13
2024-05-09T22:03:06.334Z,9.88
2024-05-09T22:05:34.040Z,9.40
2024-05-09T22:08:01.513Z,9.45
2024-05-09T22:10:33.890Z,9.25
2024-05-09T22:15:35.670Z,9.13
2024-05-09T22:18:04.012Z,9.60
2024-05-09T22:20:37.028Z,9.30
2024-05-09T22:23:07.236Z,9.20
2024-05-09T22:25:34.625Z,11.05
2024-05-09T22:28:03.042Z,10.00
2024-05-09T22:30:36.607Z,10.30
2024-05-09T22:33:09.406Z,9.77
2024-05-09T22:35:38.772Z,9.45
2024-05-09T22:38:06.190Z,9.20
2024-05-09T22:40:45.343Z,9.77
2024-05-09T22:43:21.222Z,8.98
2024-05-09T22:45:50.347Z,9.50
2024-05-09T22:48:18.148Z,8.80
2024-05-09T22:50:45.433Z,9.98
2024-05-09T22:53:12.571Z,9.40
2024-05-09T22:55:39.693Z,9.95
2024-05-09T22:58:06.942Z,9.65
2024-05-09T23:00:34.215Z,9.82
2024-05-09T23:03:01.800Z,9.93
2024-05-09T23:05:29.836Z,9.68
2024-05-09T23:07:57.218Z,8.65
2024-05-09T23:10:32.116Z,9.15
2024-05-09T23:13:03.906Z,9.57
2024-05-09T23:15:31.587Z,9.63
2024-05-09T23:17:59.081Z,9.35
2024-05-09T23:20:33.845Z,9.88
2024-05-09T23:23:06.434Z,9.55
2024-05-09T23:25:33.865Z,9.95
2024-05-09T23:28:01.246Z,11.10
2024-05-09T23:30:36.326Z,11.02
2024-05-09T23:33:07.263Z,10.45
2024-05-09T23:35:34.591Z,9.50
2024-05-09T23:38:02.697Z,11.07
2024-05-09T23:40:38.277Z,11.52
2024-05-09T23:43:12.322Z,10.45
2024-05-09T23:45:40.418Z,10.90
2024-05-09T23:48:08.176Z,11.13
2024-05-09T23:50:38.084Z,10.07
2024-05-09T23:53:08.528Z,9.63
2024-05-09T23:55:37.158Z,9.98
2024-05-09T23:58:04.721Z,9.38
